sensor_id;sensor_type;location;lat;lon;timestamp;P1;durP1;ratioP1;P2;durP2;ratioP2
23543;SDS011;11950;51.230;4.012;2023-04-24T00:00:57;46.72;;;27.05;;
23543;SDS011;11950;51.230;4.012;2023-04-24T00:03:24;39.08;;;22.27;;
23543;SDS011;11950;51.230;4.012;2023-04-24T00:05:50;30.33;;;17.05;;
23543;SDS011;11950;51.230;4.012;2023-04-24T00:08:17;25.55;;;14.82;;
23543;SDS011;11950;51.230;4.012;2023-04-24T00:10:44;21.23;;;12.20;;
23543;SDS011;11950;51.230;4.012;2023-04-24T00:13:10;15.57;;;10.57;;
23543;SDS011;11950;51.230;4.012;2023-04-24T00:15:36;13.57;;;8.85;;
23543;SDS011;11950;51.230;4.012;2023-04-24T00:18:03;12.77;;;7.65;;
23543;SDS011;11950;51.230;4.012;2023-04-24T00:20:29;12.38;;;7.32;;
23543;SDS011;11950;51.230;4.012;2023-04-24T00:22:57;8.60;;;6.32;;
23543;SDS011;11950;51.230;4.012;2023-04-24T00:25:24;9.30;;;7.45;;
23543;SDS011;11950;51.230;4.012;2023-04-24T00:27:50;15.10;;;7.43;;
23543;SDS011;11950;51.230;4.012;2023-04-24T00:30:16;13.93;;;7.47;;
23543;SDS011;11950;51.230;4.012;2023-04-24T00:32:43;11.38;;;7.20;;
23543;SDS011;11950;51.230;4.012;2023-04-24T00:35:09;11.80;;;7.53;;
23543;SDS011;11950;51.230;4.012;2023-04-24T00:37:36;13.93;;;8.18;;
23543;SDS011;11950;51.230;4.012;2023-04-24T00:40:02;9.85;;;6.63;;
23543;SDS011;11950;51.230;4.012;2023-04-24T00:42:29;11.20;;;6.28;;
23543;SDS011;11950;51.230;4.012;2023-04-24T00:44:56;9.68;;;5.28;;
23543;SDS011;11950;51.230;4.012;2023-04-24T00:47:22;9.68;;;5.78;;
23543;SDS011;11950;51.230;4.012;2023-04-24T00:49:49;45.30;;;22.08;;
23543;SDS011;11950;51.230;4.012;2023-04-24T00:52:15;59.65;;;30.55;;
23543;SDS011;11950;51.230;4.012;2023-04-24T00:54:43;79.47;;;40.90;;
23543;SDS011;11950;51.230;4.012;2023-04-24T00:57:13;88.30;;;46.78;;
23543;SDS011;11950;51.230;4.012;2023-04-24T00:59:43;97.72;;;52.92;;
23543;SDS011;11950;51.230;4.012;2023-04-24T01:02:10;99.75;;;53.58;;
23543;SDS011;11950;51.230;4.012;2023-04-24T01:04:37;95.03;;;50.22;;
23543;SDS011;11950;51.230;4.012;2023-04-24T01:07:04;90.63;;;48.20;;
23543;SDS011;11950;51.230;4.012;2023-04-24T01:09:39;82.40;;;43.67;;
23543;SDS011;11950;51.230;4.012;2023-04-24T01:12:09;70.55;;;37.10;;
23543;SDS011;11950;51.230;4.012;2023-04-24T01:14:37;73.13;;;37.22;;
23543;SDS011;11950;51.230;4.012;2023-04-24T01:17:03;66.18;;;35.78;;
23543;SDS011;11950;51.230;4.012;2023-04-24T01:19:30;65.82;;;35.10;;
23543;SDS011;11950;51.230;4.012;2023-04-24T01:21:57;60.25;;;32.92;;
23543;SDS011;11950;51.230;4.012;2023-04-24T01:24:28;65.97;;;33.83;;
23543;SDS011;11950;51.230;4.012;2023-04-24T01:26:55;68.47;;;36.03;;
23543;SDS011;11950;51.230;4.012;2023-04-24T01:29:22;64.43;;;35.58;;
23543;SDS011;11950;51.230;4.012;2023-04-24T01:31:49;61.60;;;32.33;;
23543;SDS011;11950;51.230;4.012;2023-04-24T01:34:16;62.67;;;35.88;;
23543;SDS011;11950;51.230;4.012;2023-04-24T01:36:42;76.90;;;40.55;;
23543;SDS011;11950;51.230;4.012;2023-04-24T01:39:11;81.35;;;43.50;;
23543;SDS011;11950;51.230;4.012;2023-04-24T01:41:38;74.00;;;40.72;;
23543;SDS011;11950;51.230;4.012;2023-04-24T01:44:04;73.38;;;39.65;;
23543;SDS011;11950;51.230;4.012;2023-04-24T01:46:30;68.47;;;40.30;;
23543;SDS011;11950;51.230;4.012;2023-04-24T01:48:58;64.28;;;38.22;;
23543;SDS011;11950;51.230;4.012;2023-04-24T01:51:25;74.55;;;43.42;;
23543;SDS011;11950;51.230;4.012;2023-04-24T01:53:52;70.38;;;42.45;;
23543;SDS011;11950;51.230;4.012;2023-04-24T01:56:22;76.00;;;42.50;;
23543;SDS011;11950;51.230;4.012;2023-04-24T01:58:52;68.47;;;38.78;;
23543;SDS011;11950;51.230;4.012;2023-04-24T02:01:20;76.72;;;39.10;;
23543;SDS011;11950;51.230;4.012;2023-04-24T02:03:47;79.07;;;41.97;;
23543;SDS011;11950;51.230;4.012;2023-04-24T02:06:13;87.63;;;46.50;;
23543;SDS011;11950;51.230;4.012;2023-04-24T02:08:40;90.97;;;47.33;;
23543;SDS011;11950;51.230;4.012;2023-04-24T02:11:06;96.63;;;50.63;;
23543;SDS011;11950;51.230;4.012;2023-04-24T02:13:35;105.05;;;54.53;;
23543;SDS011;11950;51.230;4.012;2023-04-24T02:16:01;109.82;;;58.83;;
23543;SDS011;11950;51.230;4.012;2023-04-24T02:18:29;119.75;;;65.25;;
23543;SDS011;11950;51.230;4.012;2023-04-24T02:20:56;135.00;;;71.13;;
23543;SDS011;11950;51.230;4.012;2023-04-24T02:23:22;140.32;;;75.03;;
23543;SDS011;11950;51.230;4.012;2023-04-24T02:25:49;136.05;;;72.65;;
23543;SDS011;11950;51.230;4.012;2023-04-24T02:28:16;137.55;;;72.80;;
23543;SDS011;11950;51.230;4.012;2023-04-24T02:30:43;126.50;;;70.30;;
23543;SDS011;11950;51.230;4.012;2023-04-24T02:33:09;117.63;;;64.57;;
23543;SDS011;11950;51.230;4.012;2023-04-24T02:35:35;84.50;;;47.28;;
23543;SDS011;11950;51.230;4.012;2023-04-24T02:38:01;54.03;;;32.53;;
23543;SDS011;11950;51.230;4.012;2023-04-24T02:40:29;37.75;;;22.35;;
23543;SDS011;11950;51.230;4.012;2023-04-24T02:42:55;25.00;;;15.43;;
23543;SDS011;11950;51.230;4.012;2023-04-24T02:45:23;22.65;;;15.23;;
23543;SDS011;11950;51.230;4.012;2023-04-24T02:47:49;14.65;;;11.35;;
23543;SDS011;11950;51.230;4.012;2023-04-24T02:50:16;18.55;;;11.40;;
23543;SDS011;11950;51.230;4.012;2023-04-24T02:52:42;10.70;;;8.70;;
23543;SDS011;11950;51.230;4.012;2023-04-24T02:55:08;9.95;;;6.97;;
23543;SDS011;11950;51.230;4.012;2023-04-24T02:57:35;8.30;;;5.30;;
23543;SDS011;11950;51.230;4.012;2023-04-24T03:00:01;8.18;;;4.07;;
23543;SDS011;11950;51.230;4.012;2023-04-24T03:02:28;5.07;;;3.10;;
23543;SDS011;11950;51.230;4.012;2023-04-24T03:04:55;6.43;;;3.00;;
23543;SDS011;11950;51.230;4.012;2023-04-24T03:07:22;4.43;;;2.75;;
23543;SDS011;11950;51.230;4.012;2023-04-24T03:09:49;4.78;;;1.98;;
23543;SDS011;11950;51.230;4.012;2023-04-24T03:12:16;5.97;;;2.53;;
23543;SDS011;11950;51.230;4.012;2023-04-24T03:14:43;4.28;;;2.30;;
23543;SDS011;11950;51.230;4.012;2023-04-24T03:17:10;5.30;;;2.45;;
23543;SDS011;11950;51.230;4.012;2023-04-24T03:19:36;5.13;;;2.55;;
23543;SDS011;11950;51.230;4.012;2023-04-24T03:22:08;7.18;;;2.53;;
23543;SDS011;11950;51.230;4.012;2023-04-24T03:24:36;6.90;;;3.53;;
23543;SDS011;11950;51.230;4.012;2023-04-24T03:27:02;4.05;;;2.28;;
23543;SDS011;11950;51.230;4.012;2023-04-24T03:29:47;9.98;;;2.70;;
23543;SDS011;11950;51.230;4.012;2023-04-24T03:32:18;4.50;;;2.85;;
23543;SDS011;11950;51.230;4.012;2023-04-24T03:34:45;6.50;;;3.00;;
23543;SDS011;11950;51.230;4.012;2023-04-24T03:37:14;6.47;;;3.00;;
23543;SDS011;11950;51.230;4.012;2023-04-24T03:39:47;8.20;;;3.20;;
23543;SDS011;11950;51.230;4.012;2023-04-24T03:42:15;7.65;;;3.50;;
23543;SDS011;11950;51.230;4.012;2023-04-24T03:44:50;8.35;;;3.78;;
23543;SDS011;11950;51.230;4.012;2023-04-24T03:47:17;10.13;;;3.83;;
23543;SDS011;11950;51.230;4.012;2023-04-24T03:49:44;9.00;;;4.13;;
23543;SDS011;11950;51.230;4.012;2023-04-24T03:52:11;8.40;;;4.05;;
23543;SDS011;11950;51.230;4.012;2023-04-24T03:54:37;7.93;;;4.45;;
23543;SDS011;11950;51.230;4.012;2023-04-24T03:57:05;9.40;;;4.95;;
23543;SDS011;11950;51.230;4.012;2023-04-24T03:59:33;11.27;;;4.70;;
23543;SDS011;11950;51.230;4.012;2023-04-24T04:02:18;10.45;;;5.30;;
23543;SDS011;11950;51.230;4.012;2023-04-24T04:04:44;8.82;;;5.78;;
23543;SDS011;11950;51.230;4.012;2023-04-24T04:07:11;9.38;;;5.82;;
23543;SDS011;11950;51.230;4.012;2023-04-24T04:09:38;12.90;;;6.43;;
23543;SDS011;11950;51.230;4.012;2023-04-24T04:12:05;11.75;;;7.57;;
23543;SDS011;11950;51.230;4.012;2023-04-24T04:14:32;14.52;;;7.47;;
23543;SDS011;11950;51.230;4.012;2023-04-24T04:16:59;14.73;;;8.43;;
23543;SDS011;11950;51.230;4.012;2023-04-24T04:19:25;16.35;;;8.60;;
23543;SDS011;11950;51.230;4.012;2023-04-24T04:21:52;15.68;;;9.27;;
23543;SDS011;11950;51.230;4.012;2023-04-24T04:24:37;20.63;;;10.05;;
23543;SDS011;11950;51.230;4.012;2023-04-24T04:27:07;18.42;;;9.10;;
23543;SDS011;11950;51.230;4.012;2023-04-24T04:30:03;14.98;;;8.73;;
23543;SDS011;11950;51.230;4.012;2023-04-24T04:32:40;18.98;;;9.70;;
23543;SDS011;11950;51.230;4.012;2023-04-24T04:35:07;17.38;;;9.13;;
23543;SDS011;11950;51.230;4.012;2023-04-24T04:37:35;17.65;;;9.43;;
23543;SDS011;11950;51.230;4.012;2023-04-24T04:40:20;18.80;;;10.07;;
23543;SDS011;11950;51.230;4.012;2023-04-24T04:42:56;16.52;;;8.55;;
23543;SDS011;11950;51.230;4.012;2023-04-24T04:45:24;14.27;;;8.02;;
23543;SDS011;11950;51.230;4.012;2023-04-24T04:48:11;14.93;;;6.75;;
23543;SDS011;11950;51.230;4.012;2023-04-24T04:50:40;17.27;;;7.53;;
23543;SDS011;11950;51.230;4.012;2023-04-24T04:53:07;11.43;;;6.88;;
23543;SDS011;11950;51.230;4.012;2023-04-24T04:55:37;11.30;;;6.55;;
23543;SDS011;11950;51.230;4.012;2023-04-24T04:58:08;14.82;;;6.65;;
23543;SDS011;11950;51.230;4.012;2023-04-24T05:00:36;12.02;;;7.10;;
23543;SDS011;11950;51.230;4.012;2023-04-24T05:03:10;17.90;;;8.25;;
23543;SDS011;11950;51.230;4.012;2023-04-24T05:05:37;14.82;;;7.25;;
23543;SDS011;11950;51.230;4.012;2023-04-24T05:08:07;11.27;;;6.05;;
23543;SDS011;11950;51.230;4.012;2023-04-24T05:10:34;15.13;;;7.45;;
23543;SDS011;11950;51.230;4.012;2023-04-24T05:13:03;14.57;;;7.55;;
23543;SDS011;11950;51.230;4.012;2023-04-24T05:15:31;13.68;;;7.28;;
23543;SDS011;11950;51.230;4.012;2023-04-24T05:17:59;11.60;;;6.60;;
23543;SDS011;11950;51.230;4.012;2023-04-24T05:20:26;11.32;;;6.47;;
23543;SDS011;11950;51.230;4.012;2023-04-24T05:22:54;12.88;;;7.47;;
23543;SDS011;11950;51.230;4.012;2023-04-24T05:25:22;10.85;;;6.15;;
23543;SDS011;11950;51.230;4.012;2023-04-24T05:27:53;12.32;;;7.20;;
23543;SDS011;11950;51.230;4.012;2023-04-24T05:30:20;14.70;;;8.00;;
23543;SDS011;11950;51.230;4.012;2023-04-24T05:32:46;17.85;;;7.68;;
23543;SDS011;11950;51.230;4.012;2023-04-24T05:35:13;15.43;;;7.55;;
23543;SDS011;11950;51.230;4.012;2023-04-24T05:37:40;15.40;;;8.07;;
23543;SDS011;11950;51.230;4.012;2023-04-24T05:40:08;16.52;;;7.88;;
23543;SDS011;11950;51.230;4.012;2023-04-24T05:42:35;16.35;;;8.00;;
23543;SDS011;11950;51.230;4.012;2023-04-24T05:45:02;12.60;;;8.05;;
23543;SDS011;11950;51.230;4.012;2023-04-24T05:47:28;14.07;;;8.13;;
23543;SDS011;11950;51.230;4.012;2023-04-24T05:49:55;16.35;;;7.70;;
23543;SDS011;11950;51.230;4.012;2023-04-24T05:52:21;16.10;;;8.50;;
23543;SDS011;11950;51.230;4.012;2023-04-24T05:54:49;17.25;;;8.73;;
23543;SDS011;11950;51.230;4.012;2023-04-24T05:59:53;15.85;;;8.32;;
23543;SDS011;11950;51.230;4.012;2023-04-24T06:02:21;16.83;;;8.85;;
23543;SDS011;11950;51.230;4.012;2023-04-24T06:04:47;14.55;;;8.55;;
23543;SDS011;11950;51.230;4.012;2023-04-24T06:07:14;19.88;;;8.68;;
23543;SDS011;11950;51.230;4.012;2023-04-24T06:09:42;16.05;;;8.30;;
23543;SDS011;11950;51.230;4.012;2023-04-24T06:12:09;14.73;;;8.30;;
23543;SDS011;11950;51.230;4.012;2023-04-24T06:14:49;16.15;;;8.52;;
23543;SDS011;11950;51.230;4.012;2023-04-24T06:17:19;16.15;;;7.93;;
23543;SDS011;11950;51.230;4.012;2023-04-24T06:19:46;18.73;;;8.90;;
23543;SDS011;11950;51.230;4.012;2023-04-24T06:22:13;18.17;;;7.32;;
23543;SDS011;11950;51.230;4.012;2023-04-24T06:24:40;16.17;;;6.75;;
23543;SDS011;11950;51.230;4.012;2023-04-24T06:27:07;12.18;;;5.45;;
23543;SDS011;11950;51.230;4.012;2023-04-24T06:29:33;11.90;;;4.80;;
23543;SDS011;11950;51.230;4.012;2023-04-24T06:31:59;9.70;;;3.90;;
23543;SDS011;11950;51.230;4.012;2023-04-24T06:34:26;8.32;;;3.70;;
23543;SDS011;11950;51.230;4.012;2023-04-24T06:36:52;9.10;;;3.75;;
23543;SDS011;11950;51.230;4.012;2023-04-24T06:39:19;10.70;;;4.05;;
23543;SDS011;11950;51.230;4.012;2023-04-24T06:41:46;9.85;;;4.00;;
23543;SDS011;11950;51.230;4.012;2023-04-24T06:44:18;10.27;;;3.95;;
23543;SDS011;11950;51.230;4.012;2023-04-24T06:46:45;17.77;;;4.95;;
23543;SDS011;11950;51.230;4.012;2023-04-24T06:49:11;8.63;;;3.85;;
23543;SDS011;11950;51.230;4.012;2023-04-24T06:51:37;13.90;;;4.35;;
23543;SDS011;11950;51.230;4.012;2023-04-24T06:54:03;11.32;;;4.35;;
23543;SDS011;11950;51.230;4.012;2023-04-24T06:56:30;10.15;;;3.35;;
23543;SDS011;11950;51.230;4.012;2023-04-24T06:58:57;10.70;;;2.70;;
23543;SDS011;11950;51.230;4.012;2023-04-24T07:01:23;11.02;;;3.00;;
23543;SDS011;11950;51.230;4.012;2023-04-24T07:03:50;10.23;;;2.53;;
23543;SDS011;11950;51.230;4.012;2023-04-24T07:06:16;8.50;;;2.35;;
23543;SDS011;11950;51.230;4.012;2023-04-24T07:08:44;13.48;;;2.33;;
23543;SDS011;11950;51.230;4.012;2023-04-24T07:11:10;12.82;;;2.65;;
23543;SDS011;11950;51.230;4.012;2023-04-24T07:13:36;11.35;;;2.28;;
23543;SDS011;11950;51.230;4.012;2023-04-24T07:16:07;11.43;;;3.17;;
23543;SDS011;11950;51.230;4.012;2023-04-24T07:18:34;12.00;;;2.72;;
23543;SDS011;11950;51.230;4.012;2023-04-24T07:21:00;12.48;;;3.03;;
23543;SDS011;11950;51.230;4.012;2023-04-24T07:23:26;12.93;;;3.38;;
23543;SDS011;11950;51.230;4.012;2023-04-24T07:25:53;14.15;;;3.75;;
23543;SDS011;11950;51.230;4.012;2023-04-24T07:28:19;12.30;;;4.53;;
23543;SDS011;11950;51.230;4.012;2023-04-24T07:30:46;11.98;;;4.00;;
23543;SDS011;11950;51.230;4.012;2023-04-24T07:33:15;9.88;;;3.05;;
23543;SDS011;11950;51.230;4.012;2023-04-24T07:35:41;11.95;;;2.75;;
23543;SDS011;11950;51.230;4.012;2023-04-24T07:38:08;15.82;;;2.70;;
23543;SDS011;11950;51.230;4.012;2023-04-24T07:40:34;11.85;;;2.42;;
23543;SDS011;11950;51.230;4.012;2023-04-24T07:43:00;11.90;;;2.40;;
23543;SDS011;11950;51.230;4.012;2023-04-24T07:45:26;12.63;;;2.40;;
23543;SDS011;11950;51.230;4.012;2023-04-24T07:47:53;11.57;;;2.75;;
23543;SDS011;11950;51.230;4.012;2023-04-24T07:50:20;14.45;;;2.83;;
23543;SDS011;11950;51.230;4.012;2023-04-24T07:52:47;9.13;;;2.42;;
23543;SDS011;11950;51.230;4.012;2023-04-24T07:55:13;10.85;;;2.90;;
23543;SDS011;11950;51.230;4.012;2023-04-24T07:57:39;9.93;;;2.65;;
23543;SDS011;11950;51.230;4.012;2023-04-24T08:00:06;11.50;;;2.63;;
23543;SDS011;11950;51.230;4.012;2023-04-24T08:02:39;8.38;;;2.55;;
23543;SDS011;11950;51.230;4.012;2023-04-24T08:05:06;15.23;;;2.90;;
23543;SDS011;11950;51.230;4.012;2023-04-24T08:07:33;7.20;;;2.42;;
23543;SDS011;11950;51.230;4.012;2023-04-24T08:10:01;11.98;;;2.45;;
23543;SDS011;11950;51.230;4.012;2023-04-24T08:12:28;10.65;;;2.65;;
23543;SDS011;11950;51.230;4.012;2023-04-24T08:14:55;9.07;;;1.80;;
23543;SDS011;11950;51.230;4.012;2023-04-24T08:17:21;7.13;;;2.20;;
23543;SDS011;11950;51.230;4.012;2023-04-24T08:19:47;8.35;;;2.03;;
23543;SDS011;11950;51.230;4.012;2023-04-24T08:22:14;9.25;;;2.03;;
23543;SDS011;11950;51.230;4.012;2023-04-24T08:24:41;11.98;;;2.20;;
23543;SDS011;11950;51.230;4.012;2023-04-24T08:27:07;8.77;;;1.90;;
23543;SDS011;11950;51.230;4.012;2023-04-24T08:29:34;10.82;;;2.05;;
23543;SDS011;11950;51.230;4.012;2023-04-24T08:32:00;8.25;;;2.00;;
23543;SDS011;11950;51.230;4.012;2023-04-24T08:34:26;12.55;;;1.80;;
23543;SDS011;11950;51.230;4.012;2023-04-24T08:36:53;8.73;;;1.90;;
23543;SDS011;11950;51.230;4.012;2023-04-24T08:39:19;9.85;;;2.15;;
23543;SDS011;11950;51.230;4.012;2023-04-24T08:41:46;11.50;;;2.35;;
23543;SDS011;11950;51.230;4.012;2023-04-24T08:44:14;8.75;;;2.40;;
23543;SDS011;11950;51.230;4.012;2023-04-24T08:46:42;9.88;;;2.58;;
23543;SDS011;11950;51.230;4.012;2023-04-24T08:49:11;8.75;;;2.65;;
23543;SDS011;11950;51.230;4.012;2023-04-24T08:51:44;9.88;;;2.10;;
23543;SDS011;11950;51.230;4.012;2023-04-24T08:54:13;10.32;;;2.60;;
23543;SDS011;11950;51.230;4.012;2023-04-24T08:56:40;8.25;;;1.83;;
23543;SDS011;11950;51.230;4.012;2023-04-24T08:59:10;8.57;;;2.45;;
23543;SDS011;11950;51.230;4.012;2023-04-24T09:01:37;7.90;;;2.28;;
23543;SDS011;11950;51.230;4.012;2023-04-24T09:04:05;13.30;;;2.42;;
23543;SDS011;11950;51.230;4.012;2023-04-24T09:06:35;8.90;;;2.15;;
23543;SDS011;11950;51.230;4.012;2023-04-24T09:09:01;16.00;;;2.60;;
23543;SDS011;11950;51.230;4.012;2023-04-24T09:11:31;10.93;;;2.60;;
23543;SDS011;11950;51.230;4.012;2023-04-24T09:14:01;6.25;;;2.35;;
23543;SDS011;11950;51.230;4.012;2023-04-24T09:16:27;9.18;;;1.98;;
23543;SDS011;11950;51.230;4.012;2023-04-24T09:18:55;6.63;;;2.22;;
23543;SDS011;11950;51.230;4.012;2023-04-24T09:21:21;5.40;;;2.00;;
23543;SDS011;11950;51.230;4.012;2023-04-24T09:23:58;6.50;;;1.95;;
23543;SDS011;11950;51.230;4.012;2023-04-24T09:26:31;10.68;;;1.75;;
23543;SDS011;11950;51.230;4.012;2023-04-24T09:28:58;8.07;;;1.67;;
23543;SDS011;11950;51.230;4.012;2023-04-24T09:31:26;4.53;;;1.40;;
23543;SDS011;11950;51.230;4.012;2023-04-24T09:33:54;6.75;;;1.42;;
23543;SDS011;11950;51.230;4.012;2023-04-24T09:36:32;7.70;;;1.52;;
23543;SDS011;11950;51.230;4.012;2023-04-24T09:39:00;7.55;;;1.30;;
23543;SDS011;11950;51.230;4.012;2023-04-24T09:41:27;4.75;;;1.23;;
23543;SDS011;11950;51.230;4.012;2023-04-24T09:43:57;5.45;;;1.60;;
23543;SDS011;11950;51.230;4.012;2023-04-24T09:46:37;3.80;;;1.40;;
23543;SDS011;11950;51.230;4.012;2023-04-24T09:49:10;4.90;;;1.13;;
23543;SDS011;11950;51.230;4.012;2023-04-24T09:51:39;3.47;;;1.40;;
23543;SDS011;11950;51.230;4.012;2023-04-24T09:54:16;4.97;;;1.20;;
23543;SDS011;11950;51.230;4.012;2023-04-24T09:56:45;4.00;;;1.23;;
23543;SDS011;11950;51.230;4.012;2023-04-24T09:59:12;3.95;;;1.38;;
23543;SDS011;11950;51.230;4.012;2023-04-24T10:01:40;11.18;;;1.83;;
23543;SDS011;11950;51.230;4.012;2023-04-24T10:04:29;3.17;;;1.52;;
23543;SDS011;11950;51.230;4.012;2023-04-24T10:06:55;3.92;;;1.27;;
23543;SDS011;11950;51.230;4.012;2023-04-24T10:09:23;5.43;;;1.33;;
23543;SDS011;11950;51.230;4.012;2023-04-24T10:11:51;5.88;;;1.30;;
23543;SDS011;11950;51.230;4.012;2023-04-24T10:14:20;7.13;;;1.60;;
23543;SDS011;11950;51.230;4.012;2023-04-24T10:16:48;4.10;;;1.48;;
23543;SDS011;11950;51.230;4.012;2023-04-24T10:19:15;6.43;;;1.38;;
23543;SDS011;11950;51.230;4.012;2023-04-24T10:21:44;4.45;;;1.40;;
23543;SDS011;11950;51.230;4.012;2023-04-24T10:24:13;8.55;;;1.40;;
23543;SDS011;11950;51.230;4.012;2023-04-24T10:26:41;6.75;;;1.50;;
23543;SDS011;11950;51.230;4.012;2023-04-24T10:29:08;5.40;;;1.35;;
23543;SDS011;11950;51.230;4.012;2023-04-24T10:31:38;3.35;;;1.27;;
23543;SDS011;11950;51.230;4.012;2023-04-24T10:34:05;4.53;;;1.30;;
23543;SDS011;11950;51.230;4.012;2023-04-24T10:36:34;7.00;;;1.20;;
23543;SDS011;11950;51.230;4.012;2023-04-24T10:39:02;3.53;;;1.10;;
23543;SDS011;11950;51.230;4.012;2023-04-24T10:41:32;2.63;;;0.75;;
23543;SDS011;11950;51.230;4.012;2023-04-24T10:44:05;2.03;;;0.80;;
23543;SDS011;11950;51.230;4.012;2023-04-24T10:46:36;2.65;;;0.73;;
23543;SDS011;11950;51.230;4.012;2023-04-24T10:49:06;3.53;;;0.80;;
23543;SDS011;11950;51.230;4.012;2023-04-24T10:51:49;3.70;;;0.80;;
23543;SDS011;11950;51.230;4.012;2023-04-24T10:59:46;2.33;;;0.68;;
23543;SDS011;11950;51.230;4.012;2023-04-24T11:02:14;1.60;;;0.60;;
23543;SDS011;11950;51.230;4.012;2023-04-24T11:04:41;2.53;;;0.57;;
23543;SDS011;11950;51.230;4.012;2023-04-24T11:07:11;0.70;;;0.50;;
23543;SDS011;11950;51.230;4.012;2023-04-24T11:09:38;1.38;;;0.50;;
23543;SDS011;11950;51.230;4.012;2023-04-24T11:12:11;1.47;;;0.60;;
23543;SDS011;11950;51.230;4.012;2023-04-24T11:17:35;2.08;;;0.82;;
23543;SDS011;11950;51.230;4.012;2023-04-24T11:20:07;1.85;;;0.55;;
23543;SDS011;11950;51.230;4.012;2023-04-24T11:22:36;1.98;;;0.60;;
23543;SDS011;11950;51.230;4.012;2023-04-24T11:25:06;6.45;;;0.70;;
23543;SDS011;11950;51.230;4.012;2023-04-24T11:27:40;3.15;;;0.80;;
23543;SDS011;11950;51.230;4.012;2023-04-24T11:30:09;2.00;;;0.80;;
23543;SDS011;11950;51.230;4.012;2023-04-24T11:32:37;2.17;;;0.57;;
23543;SDS011;11950;51.230;4.012;2023-04-24T11:35:14;2.28;;;0.70;;
23543;SDS011;11950;51.230;4.012;2023-04-24T11:37:46;2.10;;;0.60;;
23543;SDS011;11950;51.230;4.012;2023-04-24T11:40:15;4.93;;;0.80;;
23543;SDS011;11950;51.230;4.012;2023-04-24T11:42:52;3.28;;;0.88;;
23543;SDS011;11950;51.230;4.012;2023-04-24T11:45:22;0.80;;;0.60;;
23543;SDS011;11950;51.230;4.012;2023-04-24T11:47:50;1.95;;;0.60;;
23543;SDS011;11950;51.230;4.012;2023-04-24T11:50:17;1.60;;;0.70;;
23543;SDS011;11950;51.230;4.012;2023-04-24T11:52:45;2.47;;;0.77;;
23543;SDS011;11950;51.230;4.012;2023-04-24T11:57:48;3.17;;;0.80;;
23543;SDS011;11950;51.230;4.012;2023-04-24T12:02:42;2.08;;;0.80;;
23543;SDS011;11950;51.230;4.012;2023-04-24T12:05:09;4.78;;;0.80;;
23543;SDS011;11950;51.230;4.012;2023-04-24T12:07:44;1.98;;;0.80;;
23543;SDS011;11950;51.230;4.012;2023-04-24T12:10:10;6.22;;;1.00;;
23543;SDS011;11950;51.230;4.012;2023-04-24T12:12:37;3.70;;;1.00;;
23543;SDS011;11950;51.230;4.012;2023-04-24T12:15:07;3.53;;;1.00;;
23543;SDS011;11950;51.230;4.012;2023-04-24T12:17:34;3.03;;;1.10;;
23543;SDS011;11950;51.230;4.012;2023-04-24T12:22:42;5.05;;;0.90;;
23543;SDS011;11950;51.230;4.012;2023-04-24T12:25:09;5.00;;;1.10;;
23543;SDS011;11950;51.230;4.012;2023-04-24T12:27:36;5.13;;;0.88;;
23543;SDS011;11950;51.230;4.012;2023-04-24T12:30:04;3.83;;;0.95;;
23543;SDS011;11950;51.230;4.012;2023-04-24T12:32:31;2.60;;;0.90;;
23543;SDS011;11950;51.230;4.012;2023-04-24T12:34:58;2.95;;;1.08;;
23543;SDS011;11950;51.230;4.012;2023-04-24T12:37:24;4.30;;;0.80;;
23543;SDS011;11950;51.230;4.012;2023-04-24T12:40:25;3.03;;;0.73;;
23543;SDS011;11950;51.230;4.012;2023-04-24T12:42:46;2.58;;;0.77;;
23543;SDS011;11950;51.230;4.012;2023-04-24T12:45:13;4.72;;;0.80;;
23543;SDS011;11950;51.230;4.012;2023-04-24T12:47:40;0.93;;;0.60;;
23543;SDS011;11950;51.230;4.012;2023-04-24T12:50:08;1.73;;;0.55;;
23543;SDS011;11950;51.230;4.012;2023-04-24T12:52:36;1.60;;;0.70;;
23543;SDS011;11950;51.230;4.012;2023-04-24T12:55:03;2.97;;;0.80;;
23543;SDS011;11950;51.230;4.012;2023-04-24T12:57:32;2.60;;;0.80;;
23543;SDS011;11950;51.230;4.012;2023-04-24T12:59:58;2.13;;;0.73;;
23543;SDS011;11950;51.230;4.012;2023-04-24T13:02:26;1.88;;;0.60;;
23543;SDS011;11950;51.230;4.012;2023-04-24T13:04:54;1.70;;;0.77;;
23543;SDS011;11950;51.230;4.012;2023-04-24T13:07:21;2.28;;;0.65;;
23543;SDS011;11950;51.230;4.012;2023-04-24T13:09:47;3.30;;;1.10;;
23543;SDS011;11950;51.230;4.012;2023-04-24T13:12:16;1.00;;;0.80;;
23543;SDS011;11950;51.230;4.012;2023-04-24T13:14:43;4.03;;;1.20;;
23543;SDS011;11950;51.230;4.012;2023-04-24T13:17:09;3.30;;;0.90;;
23543;SDS011;11950;51.230;4.012;2023-04-24T13:19:37;3.47;;;1.10;;
23543;SDS011;11950;51.230;4.012;2023-04-24T13:22:06;3.38;;;1.13;;
23543;SDS011;11950;51.230;4.012;2023-04-24T13:24:34;3.33;;;0.95;;
23543;SDS011;11950;51.230;4.012;2023-04-24T13:27:00;1.77;;;0.80;;
23543;SDS011;11950;51.230;4.012;2023-04-24T13:29:27;2.78;;;0.90;;
23543;SDS011;11950;51.230;4.012;2023-04-24T13:31:54;2.97;;;1.50;;
23543;SDS011;11950;51.230;4.012;2023-04-24T13:34:24;2.30;;;1.25;;
23543;SDS011;11950;51.230;4.012;2023-04-24T13:36:52;3.83;;;1.35;;
23543;SDS011;11950;51.230;4.012;2023-04-24T13:39:19;2.65;;;1.23;;
23543;SDS011;11950;51.230;4.012;2023-04-24T13:41:46;4.13;;;1.02;;
23543;SDS011;11950;51.230;4.012;2023-04-24T13:44:17;2.28;;;0.90;;
23543;SDS011;11950;51.230;4.012;2023-04-24T13:46:44;2.43;;;1.13;;
23543;SDS011;11950;51.230;4.012;2023-04-24T13:49:12;5.78;;;0.90;;
23543;SDS011;11950;51.230;4.012;2023-04-24T13:51:39;1.67;;;0.75;;
23543;SDS011;11950;51.230;4.012;2023-04-24T13:54:07;2.55;;;0.80;;
23543;SDS011;11950;51.230;4.012;2023-04-24T13:56:34;3.35;;;0.80;;
23543;SDS011;11950;51.230;4.012;2023-04-24T13:59:00;3.15;;;0.80;;
23543;SDS011;11950;51.230;4.012;2023-04-24T14:01:27;3.50;;;0.70;;
23543;SDS011;11950;51.230;4.012;2023-04-24T14:03:53;2.75;;;0.90;;
23543;SDS011;11950;51.230;4.012;2023-04-24T14:06:20;1.40;;;0.80;;
23543;SDS011;11950;51.230;4.012;2023-04-24T14:08:48;2.97;;;1.00;;
23543;SDS011;11950;51.230;4.012;2023-04-24T14:11:16;3.55;;;1.30;;
23543;SDS011;11950;51.230;4.012;2023-04-24T14:13:43;2.95;;;0.82;;
23543;SDS011;11950;51.230;4.012;2023-04-24T14:16:09;2.75;;;0.98;;
23543;SDS011;11950;51.230;4.012;2023-04-24T14:18:36;3.40;;;1.20;;
23543;SDS011;11950;51.230;4.012;2023-04-24T14:21:03;3.55;;;1.27;;
23543;SDS011;11950;51.230;4.012;2023-04-24T14:23:30;4.65;;;1.05;;
23543;SDS011;11950;51.230;4.012;2023-04-24T14:25:56;1.90;;;0.90;;
23543;SDS011;11950;51.230;4.012;2023-04-24T14:28:23;2.83;;;0.85;;
23543;SDS011;11950;51.230;4.012;2023-04-24T14:30:51;3.40;;;0.90;;
23543;SDS011;11950;51.230;4.012;2023-04-24T14:33:17;5.35;;;1.00;;
23543;SDS011;11950;51.230;4.012;2023-04-24T14:35:43;2.83;;;0.82;;
23543;SDS011;11950;51.230;4.012;2023-04-24T14:38:10;3.13;;;1.10;;
23543;SDS011;11950;51.230;4.012;2023-04-24T14:40:36;0.93;;;0.57;;
23543;SDS011;11950;51.230;4.012;2023-04-24T14:43:03;1.58;;;0.90;;
23543;SDS011;11950;51.230;4.012;2023-04-24T14:45:29;3.13;;;0.80;;
23543;SDS011;11950;51.230;4.012;2023-04-24T14:47:56;4.80;;;1.08;;
23543;SDS011;11950;51.230;4.012;2023-04-24T14:50:23;2.10;;;0.80;;
23543;SDS011;11950;51.230;4.012;2023-04-24T14:52:53;2.28;;;0.93;;
23543;SDS011;11950;51.230;4.012;2023-04-24T14:55:23;2.17;;;0.93;;
23543;SDS011;11950;51.230;4.012;2023-04-24T14:57:50;1.65;;;0.80;;
23543;SDS011;11950;51.230;4.012;2023-04-24T15:00:16;1.70;;;0.90;;
23543;SDS011;11950;51.230;4.012;2023-04-24T15:02:43;2.67;;;0.80;;